createdAt,value
2018-06-01T00:01:21.552Z,92.93
2018-06-01T00:03:51.296Z,88.83
2018-06-01T00:06:19.572Z,89.17
2018-06-01T00:08:51.091Z,91.53
2018-06-01T00:11:19.410Z,90.57
2018-06-01T00:13:47.642Z,93.23
2018-06-01T00:16:16.637Z,87.10
2018-06-01T00:18:44.878Z,88.20
2018-06-01T00:21:13.194Z,93.37
2018-06-01T00:23:42.334Z,95.53
2018-06-01T00:26:10.534Z,90.30
2018-06-01T00:28:40.282Z,95.07
2018-06-01T00:31:09.242Z,94.43
2018-06-01T00:33:37.429Z,91.97
2018-06-01T00:36:06.252Z,94.03
2018-06-01T00:38:34.577Z,87.97
2018-06-01T00:41:04.615Z,95.27
2018-06-01T00:43:32.816Z,90.83
2018-06-01T00:46:01.993Z,88.20
2018-06-01T00:48:30.226Z,86.93
2018-06-01T00:51:00.711Z,96.57
2018-06-01T00:53:29.813Z,92.10
2018-06-01T00:55:58.035Z,92.90
2018-06-01T00:58:26.277Z,91.13
2018-06-01T01:00:54.891Z,93.07
2018-06-01T01:03:43.840Z,86.87
2018-06-01T01:06:12.139Z,89.33
2018-06-01T01:08:41.117Z,90.63
2018-06-01T01:11:09.402Z,93.63
2018-06-01T01:13:37.705Z,94.40
2018-06-01T01:16:06.028Z,87.23
2018-06-01T01:18:34.235Z,90.67
2018-06-01T01:21:03.364Z,88.63
2018-06-01T01:23:31.938Z,86.67
2018-06-01T01:26:01.369Z,85.90
2018-06-01T01:28:30.516Z,91.67
2018-06-01T01:30:58.949Z,91.97
2018-06-01T01:33:27.178Z,91.17
2018-06-01T01:35:56.235Z,88.57
2018-06-01T01:38:24.509Z,86.57
2018-06-01T01:40:59.574Z,91.27
2018-06-01T01:43:29.530Z,92.00
2018-06-01T01:45:58.624Z,87.17
2018-06-01T01:48:26.887Z,89.13
2018-06-01T01:50:55.123Z,89.57
2018-06-01T01:53:24.567Z,90.43
2018-06-01T01:55:52.806Z,87.47
2018-06-01T01:58:21.905Z,85.87
2018-06-01T02:00:51.636Z,84.37
2018-06-01T02:03:20.830Z,87.67
2018-06-01T02:05:49.095Z,87.43
2018-06-01T02:08:18.389Z,83.33
2018-06-01T02:10:46.645Z,90.03
2018-06-01T02:13:14.841Z,89.63
2018-06-01T02:15:43.859Z,84.13
2018-06-01T02:18:12.089Z,86.13
2018-06-01T02:20:40.270Z,90.43
2018-06-01T02:23:08.512Z,82.77
2018-06-01T02:25:37.607Z,89.33
2018-06-01T02:28:05.846Z,86.97
2018-06-01T02:30:34.153Z,88.57
2018-06-01T02:33:03.038Z,89.87
2018-06-01T02:35:32.085Z,88.17
2018-06-01T02:38:00.827Z,90.90
2018-06-01T02:40:29.082Z,88.30
2018-06-01T02:42:58.081Z,86.90
2018-06-01T02:45:26.307Z,87.77
2018-06-01T02:47:55.459Z,87.17
2018-06-01T02:50:24.734Z,92.80
2018-06-01T02:52:54.500Z,90.43
2018-06-01T02:55:22.701Z,90.53
2018-06-01T02:57:50.940Z,92.77
2018-06-01T03:00:20.991Z,88.30
2018-06-01T03:02:49.222Z,94.13
2018-06-01T03:05:17.444Z,93.23
2018-06-01T03:07:46.462Z,89.00
2018-06-01T03:10:16.860Z,91.97
2018-06-01T03:12:45.088Z,90.60
2018-06-01T03:15:15.334Z,89.60
2018-06-01T03:17:43.636Z,88.40
2018-06-01T03:20:11.863Z,90.07
2018-06-01T03:22:40.061Z,88.60
2018-06-01T03:25:08.273Z,89.23
2018-06-01T03:27:37.568Z,95.13
2018-06-01T03:30:05.836Z,95.50
2018-06-01T03:32:35.849Z,91.93
2018-06-01T03:35:04.063Z,82.60
2018-06-01T03:37:32.266Z,83.33
2018-06-01T03:40:00.480Z,85.40
2018-06-01T03:42:29.675Z,80.47
2018-06-01T03:44:57.859Z,82.47
2018-06-01T03:47:26.093Z,85.93
2018-06-01T03:49:54.876Z,81.73
2018-06-01T03:52:23.818Z,80.20
2018-06-01T03:54:52.350Z,84.83
2018-06-01T03:57:21.740Z,83.87
2018-06-01T03:59:51.488Z,79.90
2018-06-01T04:02:20.286Z,80.00
2018-06-01T04:04:49.292Z,83.83
2018-06-01T04:07:17.834Z,81.40
2018-06-01T04:09:46.619Z,82.37
2018-06-01T04:12:14.841Z,82.97
2018-06-01T04:14:44.037Z,79.70
2018-06-01T04:17:13.875Z,80.63
2018-06-01T04:19:42.098Z,80.73
2018-06-01T04:22:10.301Z,84.80
2018-06-01T04:24:38.509Z,82.30
2018-06-01T04:27:08.475Z,83.53
2018-06-01T04:29:37.636Z,87.97
2018-06-01T04:32:06.648Z,84.10
2018-06-01T04:34:34.951Z,85.37
2018-06-01T04:37:03.162Z,87.40
2018-06-01T04:39:33.269Z,83.00
2018-06-01T04:42:01.500Z,87.20
2018-06-01T04:44:29.697Z,87.73
2018-06-01T04:46:57.962Z,87.33
2018-06-01T04:49:26.287Z,85.17
2018-06-01T04:51:56.195Z,83.97
2018-06-01T04:54:26.173Z,85.57
2018-06-01T04:56:54.367Z,84.87
2018-06-01T04:59:22.562Z,83.10
2018-06-01T05:01:52.972Z,84.67
2018-06-01T05:04:21.180Z,83.57
2018-06-01T05:06:52.075Z,88.93
2018-06-01T05:09:20.375Z,88.80
2018-06-01T05:11:49.603Z,83.43
2018-06-01T05:14:18.627Z,85.13
2018-06-01T05:16:46.875Z,84.53
2018-06-01T05:19:15.096Z,88.90
2018-06-01T05:21:44.655Z,90.07
2018-06-01T05:24:13.599Z,88.53
2018-06-01T05:26:41.824Z,88.43
2018-06-01T05:29:11.027Z,88.40
2018-06-01T05:31:39.244Z,88.67
2018-06-01T05:34:08.029Z,87.70
2018-06-01T05:36:36.220Z,89.17
2018-06-01T05:39:07.266Z,86.00
2018-06-01T05:41:35.790Z,89.10
2018-06-01T05:44:05.313Z,93.23
2018-06-01T05:46:34.451Z,87.07
2018-06-01T05:49:02.797Z,87.23
2018-06-01T05:51:31.019Z,92.07
2018-06-01T05:54:00.348Z,88.93
2018-06-01T05:56:29.946Z,95.83
2018-06-01T06:01:33.193Z,94.20
2018-06-01T06:04:01.484Z,81.80
2018-06-01T06:06:29.693Z,75.60
2018-06-01T06:08:58.669Z,84.30
2018-06-01T06:11:27.246Z,76.43
2018-06-01T06:13:55.496Z,80.30
2018-06-01T06:16:24.607Z,87.80
2018-06-01T06:18:52.834Z,86.13
2018-06-01T06:21:22.030Z,88.07
2018-06-01T06:23:51.131Z,86.47
2018-06-01T06:26:20.052Z,85.37
2018-06-01T06:28:48.272Z,91.30
2018-06-01T06:31:17.350Z,84.53
2018-06-01T06:33:47.367Z,86.17
2018-06-01T06:36:15.591Z,89.03
2018-06-01T06:38:43.926Z,86.73
2018-06-01T06:41:13.132Z,90.37
2018-06-01T06:43:43.138Z,90.97
2018-06-01T06:46:12.411Z,91.07
2018-06-01T06:48:41.403Z,87.70
2018-06-01T06:51:10.373Z,88.63
2018-06-01T06:53:39.569Z,86.93
2018-06-01T06:56:07.810Z,86.50
2018-06-01T06:58:36.271Z,84.27
2018-06-01T07:01:04.510Z,131.73
2018-06-01T07:03:32.745Z,89.87
2018-06-01T07:06:01.926Z,84.73
2018-06-01T07:08:30.117Z,86.97
2018-06-01T07:10:58.410Z,86.50
2018-06-01T07:13:27.299Z,81.87
2018-06-01T07:15:56.271Z,79.03
2018-06-01T07:18:24.506Z,75.27
2018-06-01T07:20:52.731Z,80.37
2018-06-01T07:23:21.810Z,81.63
2018-06-01T07:25:50.025Z,85.10
2018-06-01T07:28:18.256Z,82.67
2018-06-01T07:30:46.475Z,85.00
2018-06-01T07:33:14.765Z,88.83
2018-06-01T07:35:43.001Z,86.30
2018-06-01T07:38:12.942Z,90.93
2018-06-01T07:40:41.179Z,89.47
2018-06-01T07:43:09.430Z,89.70
2018-06-01T07:45:38.545Z,88.57
2018-06-01T07:48:06.763Z,88.43
2018-06-01T07:50:35.823Z,88.47
2018-06-01T07:53:05.074Z,84.80
2018-06-01T07:55:33.346Z,83.00
2018-06-01T07:58:01.618Z,83.73
2018-06-01T08:00:29.828Z,89.13
2018-06-01T08:02:59.707Z,86.90
2018-06-01T08:05:27.972Z,83.33
2018-06-01T08:07:56.189Z,84.73
2018-06-01T08:10:24.463Z,82.13
2018-06-01T08:12:52.739Z,90.70
2018-06-01T08:15:21.711Z,91.90
2018-06-01T08:17:51.005Z,92.70
2018-06-01T08:20:19.282Z,94.77
2018-06-01T08:22:47.486Z,89.10
2018-06-01T08:25:15.872Z,88.97
2018-06-01T08:27:44.267Z,87.13
2018-06-01T08:30:13.511Z,86.30
2018-06-01T08:32:41.756Z,88.70
2018-06-01T08:35:09.970Z,85.03
2018-06-01T08:37:38.178Z,91.80
2018-06-01T08:40:06.386Z,90.70
2018-06-01T08:42:35.375Z,90.23
2018-06-01T08:45:03.816Z,88.10
2018-06-01T08:47:32.674Z,88.87
2018-06-01T08:50:00.940Z,95.73
2018-06-01T08:52:29.133Z,94.10
2018-06-01T08:54:57.339Z,92.47
2018-06-01T08:57:25.579Z,90.03
2018-06-01T08:59:53.804Z,93.33
2018-06-01T09:02:22.089Z,96.73
2018-06-01T09:04:50.320Z,95.47
2018-06-01T09:07:18.529Z,90.93
2018-06-01T09:09:46.759Z,86.63
2018-06-01T09:12:14.987Z,87.20
2018-06-01T09:14:43.186Z,87.47
2018-06-01T09:17:11.396Z,86.00
2018-06-01T09:19:39.633Z,88.60
2018-06-01T09:22:09.678Z,93.53
2018-06-01T09:24:37.841Z,95.63
2018-06-01T09:27:07.729Z,90.93
2018-06-01T09:29:36.066Z,89.13
2018-06-01T09:32:04.454Z,83.20
2018-06-01T09:34:32.732Z,90.07
2018-06-01T09:37:00.940Z,90.23
2018-06-01T09:39:30.123Z,87.13
2018-06-01T09:41:58.406Z,87.63
2018-06-01T09:44:26.609Z,86.93
2018-06-01T09:46:54.805Z,88.40
2018-06-01T09:49:23.371Z,90.27
2018-06-01T09:51:51.588Z,92.03
2018-06-01T09:54:20.478Z,85.57
2018-06-01T09:56:48.693Z,82.57
2018-06-01T09:59:19.472Z,82.70
2018-06-01T10:01:48.455Z,83.13
2018-06-01T10:04:16.655Z,83.37
2018-06-01T10:06:45.813Z,84.13
2018-06-01T10:09:17.148Z,84.33
2018-06-01T10:11:45.400Z,84.43
2018-06-01T10:14:13.668Z,81.40
2018-06-01T10:16:41.910Z,84.50
2018-06-01T10:19:10.107Z,83.10
2018-06-01T10:21:39.080Z,85.40
2018-06-01T10:24:07.436Z,82.80
2018-06-01T10:26:36.032Z,190.30
2018-06-01T10:29:04.594Z,230.20
2018-06-01T10:31:33.663Z,105.77
2018-06-01T10:34:02.425Z,100.90
2018-06-01T10:36:30.633Z,87.73
2018-06-01T10:38:58.841Z,88.93
2018-06-01T10:41:27.054Z,85.30
2018-06-01T10:43:56.093Z,85.83
2018-06-01T10:46:25.086Z,79.43
2018-06-01T10:48:54.070Z,76.27
2018-06-01T10:51:22.256Z,80.30
2018-06-01T10:53:50.515Z,78.60
2018-06-01T10:56:18.759Z,77.70
2018-06-01T10:58:46.962Z,75.73
2018-06-01T11:01:15.197Z,92.93
2018-06-01T11:03:44.332Z,77.53
2018-06-01T11:06:13.639Z,75.73
2018-06-01T11:08:41.907Z,77.20
2018-06-01T11:11:10.137Z,77.73
2018-06-01T11:13:38.412Z,75.33
2018-06-01T11:16:06.635Z,76.63
2018-06-01T11:18:35.227Z,75.73
2018-06-01T11:21:03.470Z,74.70
2018-06-01T11:23:32.852Z,77.50
2018-06-01T11:26:01.175Z,76.93
2018-06-01T11:28:30.353Z,75.37
2018-06-01T11:30:58.603Z,74.30
2018-06-01T11:33:27.593Z,75.90
2018-06-01T11:35:55.787Z,73.83
2018-06-01T11:38:24.949Z,74.87
2018-06-01T11:40:53.153Z,77.37
2018-06-01T11:43:21.953Z,74.77
2018-06-01T11:45:50.161Z,77.37
2018-06-01T11:48:18.486Z,76.40
2018-06-01T11:50:46.705Z,74.80
2018-06-01T11:53:15.881Z,75.40
2018-06-01T11:55:44.945Z,75.57
2018-06-01T11:58:13.760Z,74.33
2018-06-01T12:00:42.085Z,72.90
2018-06-01T12:03:11.132Z,73.63
2018-06-01T12:05:39.357Z,73.10
2018-06-01T12:08:08.642Z,73.40
2018-06-01T12:10:36.834Z,74.83
2018-06-01T12:13:06.264Z,75.17
2018-06-01T12:15:35.691Z,76.67
2018-06-01T12:18:03.913Z,73.57
2018-06-01T12:20:32.519Z,73.53
2018-06-01T12:23:01.469Z,72.87
2018-06-01T12:25:29.821Z,73.30
2018-06-01T12:27:58.966Z,72.93
2018-06-01T12:30:27.227Z,76.40
2018-06-01T12:32:55.414Z,73.87
2018-06-01T12:35:23.625Z,76.43
2018-06-01T12:37:52.026Z,74.20
2018-06-01T12:40:20.309Z,73.80
2018-06-01T12:42:48.528Z,74.23
2018-06-01T12:45:16.879Z,74.63
2018-06-01T12:47:45.083Z,75.73
2018-06-01T12:50:14.189Z,73.27
2018-06-01T12:52:43.176Z,74.47
2018-06-01T12:55:12.218Z,75.47
2018-06-01T12:57:40.480Z,73.40
2018-06-01T13:00:09.820Z,73.20
2018-06-01T13:02:38.013Z,76.63
2018-06-01T13:05:07.267Z,75.77
2018-06-01T13:07:35.645Z,74.73
2018-06-01T13:10:05.177Z,73.23
2018-06-01T13:12:33.409Z,74.37
2018-06-01T13:15:01.631Z,73.70
2018-06-01T13:17:31.462Z,74.63
2018-06-01T13:19:59.742Z,74.07
2018-06-01T13:22:30.013Z,74.70
2018-06-01T13:24:59.809Z,74.43
2018-06-01T13:27:28.031Z,74.33
2018-06-01T13:29:58.974Z,73.40
2018-06-01T13:32:28.035Z,73.00
2018-06-01T13:34:57.845Z,76.63
2018-06-01T13:37:29.482Z,72.73
2018-06-01T13:39:59.146Z,71.47
2018-06-01T13:42:28.624Z,73.50
2018-06-01T13:44:58.798Z,74.47
2018-06-01T13:47:27.049Z,77.33
2018-06-01T13:49:56.090Z,76.33
2018-06-01T13:52:25.087Z,74.07
2018-06-01T13:54:54.536Z,76.90
2018-06-01T13:57:23.814Z,76.60
2018-06-01T13:59:52.089Z,75.90
2018-06-01T14:02:21.597Z,76.63
2018-06-01T14:04:52.356Z,76.60
2018-06-01T14:07:23.024Z,76.80
2018-06-01T14:09:52.207Z,77.63
2018-06-01T14:12:21.394Z,77.55
2018-06-01T14:14:51.740Z,80.05
2018-06-01T14:17:22.557Z,79.07
2018-06-01T14:19:53.531Z,79.62
2018-06-01T14:22:21.835Z,81.87
2018-06-01T14:24:50.785Z,79.07
2018-06-01T14:27:23.764Z,79.20
2018-06-01T14:29:53.324Z,77.57
2018-06-01T14:32:22.731Z,78.77
2018-06-01T14:34:51.483Z,78.23
2018-06-01T14:37:20.764Z,78.07
2018-06-01T14:39:52.483Z,76.87
2018-06-01T14:42:21.853Z,76.17
2018-06-01T14:44:50.492Z,78.57
2018-06-01T14:47:19.590Z,78.82
2018-06-01T14:49:49.318Z,79.53
2018-06-01T14:52:18.892Z,81.32
2018-06-01T14:54:49.223Z,79.50
2018-06-01T14:57:18.234Z,78.12
2018-06-01T14:59:48.597Z,79.68
2018-06-01T15:02:21.041Z,91.63
2018-06-01T15:04:50.261Z,81.30
2018-06-01T15:07:19.236Z,79.43
2018-06-01T15:09:48.631Z,80.25
2018-06-01T15:12:18.041Z,79.95
2018-06-01T15:14:47.443Z,81.30
2018-06-01T15:17:16.565Z,79.18
2018-06-01T15:19:44.793Z,81.25
2018-06-01T15:22:13.559Z,79.80
2018-06-01T15:24:41.877Z,78.80
2018-06-01T15:27:11.034Z,77.97
2018-06-01T15:29:39.298Z,80.47
2018-06-01T15:32:07.537Z,79.82
2018-06-01T15:34:36.568Z,82.12
2018-06-01T15:37:04.829Z,79.85
2018-06-01T15:39:33.744Z,80.40
2018-06-01T15:42:03.172Z,79.82
2018-06-01T15:44:33.394Z,81.90
2018-06-01T15:47:03.679Z,80.05
2018-06-01T15:49:31.959Z,80.25
2018-06-01T15:52:01.186Z,82.43
2018-06-01T15:54:29.565Z,78.65
2018-06-01T15:57:00.003Z,81.65
2018-06-01T15:59:29.293Z,84.82
2018-06-01T16:01:57.543Z,79.18
2018-06-01T16:04:25.771Z,82.30
2018-06-01T16:06:54.784Z,78.53
2018-06-01T16:09:23.014Z,83.68
2018-06-01T16:11:51.232Z,79.22
2018-06-01T16:14:19.447Z,78.45
2018-06-01T16:16:47.701Z,80.93
2018-06-01T16:19:15.935Z,79.00
2018-06-01T16:21:47.717Z,79.55
2018-06-01T16:24:16.170Z,79.55
2018-06-01T16:26:45.175Z,80.40
2018-06-01T16:29:14.819Z,83.37
2018-06-01T16:31:43.956Z,81.03
2018-06-01T16:34:12.184Z,80.10
2018-06-01T16:36:41.747Z,84.80
2018-06-01T16:39:10.003Z,80.50
2018-06-01T16:41:39.848Z,80.20
2018-06-01T16:44:08.097Z,81.85
2018-06-01T16:46:37.072Z,80.27
2018-06-01T16:49:05.330Z,81.43
2018-06-01T16:51:33.550Z,79.70
2018-06-01T16:54:01.793Z,78.43
2018-06-01T16:56:29.980Z,81.23
2018-06-01T16:58:59.071Z,79.07
2018-06-01T17:01:28.213Z,82.97
2018-06-01T17:03:56.438Z,76.93
2018-06-01T17:06:24.620Z,81.90
2018-06-01T17:08:52.919Z,78.20
2018-06-01T17:11:23.267Z,78.70
2018-06-01T17:13:51.501Z,81.77
2018-06-01T17:16:19.725Z,81.30
2018-06-01T17:18:47.915Z,78.97
2018-06-01T17:21:16.990Z,80.13
2018-06-01T17:23:45.203Z,79.50
2018-06-01T17:26:13.416Z,77.43
2018-06-01T17:28:41.661Z,80.27
2018-06-01T17:31:09.857Z,79.70
2018-06-01T17:33:38.090Z,81.47
2018-06-01T17:36:07.121Z,77.00
2018-06-01T17:38:35.361Z,77.43
2018-06-01T17:41:05.153Z,75.10
2018-06-01T17:43:33.489Z,76.17
2018-06-01T17:46:01.723Z,74.47
2018-06-01T17:48:32.093Z,78.23
2018-06-01T17:51:01.321Z,79.83
2018-06-01T17:53:29.628Z,79.10
2018-06-01T17:55:57.845Z,76.43
2018-06-01T17:58:26.197Z,81.80
2018-06-01T18:00:54.445Z,80.17
2018-06-01T18:03:22.873Z,76.80
2018-06-01T18:05:51.102Z,76.30
2018-06-01T18:08:19.754Z,81.60
2018-06-01T18:10:47.992Z,76.03
2018-06-01T18:13:16.197Z,77.17
2018-06-01T18:15:44.467Z,78.77
2018-06-01T18:18:13.561Z,77.57
2018-06-01T18:20:41.800Z,77.70
2018-06-01T18:23:10.014Z,77.80
2018-06-01T18:25:38.226Z,76.63
2018-06-01T18:28:06.560Z,76.57
2018-06-01T18:30:35.549Z,80.80
2018-06-01T18:33:03.960Z,78.17
2018-06-01T18:35:32.411Z,76.57
2018-06-01T18:38:02.501Z,80.10
2018-06-01T18:40:30.751Z,77.40
2018-06-01T18:42:59.316Z,74.40
2018-06-01T18:45:28.465Z,74.27
2018-06-01T18:47:56.657Z,76.17
2018-06-01T18:50:24.937Z,77.60
2018-06-01T18:52:53.937Z,75.87
2018-06-01T18:55:22.172Z,78.27
2018-06-01T18:57:51.345Z,75.33
2018-06-01T19:00:20.411Z,78.13
2018-06-01T19:02:49.394Z,75.00
2018-06-01T19:05:17.630Z,78.10
2018-06-01T19:07:46.830Z,85.27
2018-06-01T19:10:15.966Z,77.60
2018-06-01T19:12:44.200Z,75.53
2018-06-01T19:15:14.354Z,76.67
2018-06-01T19:17:43.688Z,75.73
2018-06-01T19:20:14.677Z,77.10
2018-06-01T19:22:43.876Z,75.77
2018-06-01T19:25:12.950Z,78.80
2018-06-01T19:27:41.183Z,73.37
2018-06-01T19:30:10.790Z,77.27
2018-06-01T19:32:39.644Z,75.23
2018-06-01T19:35:08.625Z,72.23
2018-06-01T19:37:36.867Z,75.57
2018-06-01T19:40:05.905Z,72.70
2018-06-01T19:42:34.927Z,73.33
2018-06-01T19:45:03.516Z,71.87
2018-06-01T19:47:31.987Z,70.93
2018-06-01T19:50:00.399Z,76.30
2018-06-01T19:52:28.655Z,72.67
2018-06-01T19:54:58.413Z,72.87
2018-06-01T19:57:27.256Z,70.70
2018-06-01T19:59:56.377Z,69.90
2018-06-01T20:02:26.477Z,74.27
2018-06-01T20:04:54.882Z,74.30
2018-06-01T20:07:23.409Z,73.73
2018-06-01T20:09:51.724Z,75.30
2018-06-01T20:12:19.986Z,73.33
2018-06-01T20:14:48.405Z,71.37
2018-06-01T20:17:18.590Z,69.93
2018-06-01T20:19:46.818Z,74.00
2018-06-01T20:22:16.256Z,77.83
2018-06-01T20:24:45.142Z,71.20
2018-06-01T20:27:13.665Z,73.57
2018-06-01T20:29:41.867Z,72.40
2018-06-01T20:32:10.141Z,75.00
2018-06-01T20:34:39.128Z,74.50
2018-06-01T20:37:07.379Z,70.97
2018-06-01T20:39:36.819Z,73.83
2018-06-01T20:42:05.207Z,69.93
2018-06-01T20:44:34.280Z,71.27
2018-06-01T20:47:02.523Z,73.13
2018-06-01T20:49:31.846Z,69.20
2018-06-01T20:52:00.153Z,69.87
2018-06-01T20:54:31.870Z,72.10
2018-06-01T20:57:00.109Z,74.27
2018-06-01T20:59:28.298Z,74.30
2018-06-01T21:01:57.525Z,71.73
2018-06-01T21:04:25.734Z,72.30
2018-06-01T21:06:55.475Z,70.33
2018-06-01T21:09:25.519Z,70.17
2018-06-01T21:11:57.244Z,69.10
2018-06-01T21:14:26.282Z,68.97
2018-06-01T21:16:54.826Z,70.87
2018-06-01T21:19:23.786Z,70.23
2018-06-01T21:21:52.291Z,70.57
2018-06-01T21:24:20.517Z,72.07
2018-06-01T21:26:48.847Z,71.00
2018-06-01T21:29:17.239Z,71.90
2018-06-01T21:31:45.447Z,69.83
2018-06-01T21:34:13.753Z,70.90
2018-06-01T21:36:43.804Z,70.47
2018-06-01T21:39:12.013Z,69.63
2018-06-01T21:41:40.231Z,70.70
2018-06-01T21:44:08.474Z,69.17
2018-06-01T21:46:38.587Z,67.87
2018-06-01T21:49:06.770Z,69.83
2018-06-01T21:51:35.847Z,67.10
2018-06-01T21:54:05.102Z,70.30
2018-06-01T21:56:33.404Z,66.90
2018-06-01T21:59:01.702Z,70.43
2018-06-01T22:01:29.966Z,68.47
2018-06-01T22:03:59.212Z,69.43
2018-06-01T22:06:28.978Z,67.30
2018-06-01T22:08:57.217Z,67.10
2018-06-01T22:11:28.224Z,67.57
2018-06-01T22:13:58.182Z,67.93
2018-06-01T22:16:27.096Z,66.70
2018-06-01T22:18:55.306Z,66.63
2018-06-01T22:21:24.389Z,67.07
2018-06-01T22:23:53.728Z,66.77
2018-06-01T22:26:22.150Z,67.97
2018-06-01T22:28:50.447Z,67.10
2018-06-01T22:31:18.754Z,68.03
2018-06-01T22:33:47.734Z,65.50
2018-06-01T22:36:17.164Z,67.03
2018-06-01T22:38:45.409Z,66.60
2018-06-01T22:41:13.615Z,71.77
2018-06-01T22:43:41.963Z,70.83
2018-06-01T22:46:10.293Z,69.43
2018-06-01T22:48:38.982Z,68.00
2018-06-01T22:51:07.186Z,67.37
2018-06-01T22:53:35.407Z,70.10
2018-06-01T22:56:04.031Z,68.03
2018-06-01T22:58:32.403Z,66.50
2018-06-01T23:01:00.648Z,119.50
2018-06-01T23:03:29.606Z,64.27
2018-06-01T23:05:59.961Z,66.03
2018-06-01T23:08:28.233Z,66.07
2018-06-01T23:10:59.713Z,66.17
2018-06-01T23:13:29.296Z,66.00
2018-06-01T23:15:57.534Z,63.53
2018-06-01T23:18:27.291Z,66.00
2018-06-01T23:20:57.269Z,64.83
2018-06-01T23:23:26.264Z,67.03
2018-06-01T23:25:55.495Z,65.27
2018-06-01T23:28:24.935Z,65.90
2018-06-01T23:30:53.417Z,67.90
2018-06-01T23:33:21.747Z,64.70
2018-06-01T23:35:50.897Z,67.70
2018-06-01T23:38:20.507Z,65.90
2018-06-01T23:40:49.742Z,67.40
2018-06-01T23:43:17.972Z,65.43
2018-06-01T23:45:46.182Z,65.20
2018-06-01T23:48:14.374Z,65.57
2018-06-01T23:50:43.458Z,64.67
2018-06-01T23:53:11.658Z,68.93
2018-06-01T23:55:39.878Z,65.47
2018-06-01T23:58:08.078Z,64.73
